Wednesday, January 17, 2018, 4:59 PM EST
Back to Local

KSLK, Adirondack Regional Airport

Location: Saranac Lake, NY, United States Lat: 44.4
Local Time: 4:59 PM EST (21:59 GMT) Lon: -74.2
Time Zone: US/Eastern Elev: 1663 ft

Show me the last for .
Show Decoded

2018-01-17 16:00 METAR KSLK 172100Z AUTO 22008KT 3SM -SN BR OVC023 M08/M11 A3009 RMK AO2 P0000
                 T10831106 =
2018-01-17 15:51 METAR KSLK 172051Z AUTO 23007KT 2 1/2SM -SN BR BKN023 OVC028 M08/M11 A3009 RMK
                 AO2 VIS 2V4 SLP225 P0000 60000 T10831106 56009 =
2018-01-17 15:46 METAR KSLK 172046Z AUTO 24006KT 2SM -SN BR BKN023 BKN030 OVC055 M08/M11 A3009
                 RMK AO2 P0000 =
2018-01-17 15:20 METAR KSLK 172020Z AUTO 24006KT 3SM -SN BKN023 OVC055 M08/M11 A3010 RMK AO2
                 P0000 T10781106 =
2018-01-17 14:51 METAR KSLK 171951Z AUTO 24006KT 2 1/2SM -SN OVC023 M08/M11 A3011 RMK AO2 SLP232
                 P0000 T10781106 =
2018-01-17 14:42 METAR KSLK 171942Z AUTO 24007KT 4SM -SN BKN018 OVC023 M08/M11 A3011 RMK AO2
                 P0000 T10781106 $ =
2018-01-17 14:25 METAR KSLK 171925Z AUTO VRB05KT 2SM -SN OVC018 M08/M11 A3011 RMK AO2 P0000
                 T10781106 =
2018-01-17 13:51 METAR KSLK 171851Z AUTO 26008KT 240V300 4SM -SN BKN020 OVC032 M07/M11 A3012 RMK
                 AO2 SLP233 P0000 T10721106 =
2018-01-17 13:31 METAR KSLK 171831Z AUTO 24007KT 4SM -SN BKN018 OVC031 M07/M10 A3012 RMK AO2
                 P0000 T10721100 =
2018-01-17 13:14 METAR KSLK 171814Z AUTO 24006KT 2 1/2SM -SN OVC017 M07/M10 A3013 RMK AO2 P0000
                 T10721100 =
2018-01-17 13:06 METAR KSLK 171806Z AUTO 23007KT 1 3/4SM -SN BR SCT013 BKN019 OVC031 M07/M09
                 A3013 RMK AO2 P0000 T10721094 =
2018-01-17 12:51 METAR KSLK 171751Z AUTO 22006KT 1 1/2SM -SN BR BKN014 OVC030 M08/M10 A3013 RMK
                 AO2 SLP236 P0000 60000 T10781100 11072 21122 58020 =
2018-01-17 12:36 METAR KSLK 171736Z AUTO 22006KT 1 1/2SM -SN BR BKN014 OVC029 M07/M09 A3014 RMK
                 AO2 P0000 T10721094 =
2018-01-17 12:28 METAR KSLK 171728Z AUTO VRB04KT 2SM -SN FEW018 OVC029 M07/M10 A3015 RMK AO2
                 P0000 T10721100 =
2018-01-17 12:10 METAR KSLK 171710Z AUTO 25007KT 1 3/4SM -SN BR SCT015 OVC028 M07/M09 A3016 RMK
                 AO2 P0000 T10721094 =
2018-01-17 12:00 METAR KSLK 171700Z AUTO 26005KT 1 1/2SM -SN BKN013 OVC026 M07/M10 A3016 RMK AO2
                 P0000 T10721100 =
2018-01-17 11:51 METAR KSLK 171651Z AUTO 23006KT 2SM -SN BR OVC013 M07/M09 A3017 RMK AO2 SNB02
                 SLP246 P0000 T10721094 =
2018-01-17 11:41 METAR KSLK 171641Z AUTO VRB04KT 2SM -SN BR OVC013 M07/M09 A3017 RMK AO2 SNB02
                 P0000 T10721094 =
2018-01-17 11:31 METAR KSLK 171631Z AUTO 28003KT 1 3/4SM -SN BR OVC013 M07/M09 A3018 RMK AO2
                 SNB02 P0000 T10721094 =
2018-01-17 11:19 METAR KSLK 171619Z AUTO 00000KT 2SM -SN BR OVC014 M07/M09 A3018 RMK AO2 SNB02
                 P0000 T10721094 =
2018-01-17 11:09 METAR KSLK 171609Z AUTO 27004KT 1 3/4SM -SN BR OVC014 M07/M09 A3019 RMK AO2
                 SNB02 P0000 T10721094 =
2018-01-17 10:51 METAR KSLK 171551Z AUTO 26005KT 5SM BR OVC014 M07/M09 A3020 RMK AO2 SNE11 SLP256
                 P0000 T10721094 =
2018-01-17 10:30 METAR KSLK 171530Z AUTO 31004KT 5SM BR OVC013 M07/M09 A3020 RMK AO2 SNE11 P0000
                 T10721094 =
2018-01-17 10:22 METAR KSLK 171522Z AUTO 23003KT 4SM BR OVC015 M08/M09 A3020 RMK AO2 SNE11 P0000
                 T10781094 =
2018-01-17 10:05 METAR KSLK 171505Z AUTO 00000KT 2SM -SN BR OVC014 M08/M09 A3020 RMK AO2 P0000
                 T10781089 =
2018-01-17 09:55 METAR KSLK 171455Z AUTO 30003KT 2 1/2SM -SN BR BKN015 OVC024 M08/M09 A3020 RMK
                 AO2 P0000 T10831094 =
2018-01-17 09:51 METAR KSLK 171451Z AUTO 00000KT 3SM -SN BR BKN014 OVC024 M08/M09 A3020 RMK AO2
                 SLP255 P0000 60000 T10831094 55002 =
2018-01-17 09:49 METAR KSLK 171449Z AUTO 30003KT 2 1/2SM -SN BR BKN014 OVC024 M08/M09 A3019 RMK
                 AO2 VIS 2V4 P0000 =
2018-01-17 09:39 METAR KSLK 171439Z AUTO 00000KT 2SM -SN BR SCT014 OVC024 M08/M09 A3020 RMK AO2
                 P0000 T10831094 =
2018-01-17 09:13 METAR KSLK 171413Z AUTO 00000KT 1 1/2SM -SN BR OVC026 M09/M10 A3020 RMK AO2
                 P0000 T10941100 =
2018-01-17 08:51 METAR KSLK 171351Z AUTO 00000KT 2 1/2SM -SN BR OVC022 M09/M11 A3020 RMK AO2
                 SNB33 SLP258 P0000 T10941106 $ =
2018-01-17 07:51 METAR KSLK 171251Z AUTO 00000KT 10SM OVC021 M11/M12 A3020 RMK AO2 SLP259
                 T11111122 =
2018-01-17 06:51 METAR KSLK 171151Z AUTO 00000KT 10SM OVC021 M12/M13 A3022 RMK AO2 SLP265 I6000
                 T11221133 11111 21167 58006 =
2018-01-17 05:51 METAR KSLK 171051Z AUTO 00000KT 10SM OVC022 M13/M14 A3023 RMK AO2 SLP268
                 T11281144 $ =
2018-01-17 05:35 METAR KSLK 171035Z AUTO 00000KT 9SM BKN023 BKN040 OVC075 M13/M14 A3022 RMK AO2
                 T11331144 $ =
2018-01-17 05:16 METAR KSLK 171016Z AUTO 32003KT 10SM SCT023 SCT040 OVC075 M13/M14 A3022 RMK AO2
                 T11331144 $ =
2018-01-17 04:51 METAR KSLK 170951Z AUTO 00000KT 10SM OVC023 M13/M14 A3023 RMK AO2 SLP270
                 T11331144 $ =
2018-01-17 03:51 METAR KSLK 170851Z AUTO 00000KT 10SM FEW009 OVC027 M15/M16 A3024 RMK AO2 SLP272
                 I3000 T11501161 58002 $ =
2018-01-17 03:46 METAR KSLK 170846Z AUTO 00000KT 10SM SCT009 OVC027 M15/M17 A3024 RMK AO2 $ =
2018-01-17 03:26 METAR KSLK 170826Z AUTO 00000KT 10SM OVC009 M15/M16 A3024 RMK AO2 T11501161 $ =
2018-01-17 02:51 METAR KSLK 170751Z AUTO 00000KT 10SM OVC013 M16/M16 A3025 RMK AO2 SLP278
                 T11561161 $ =
2018-01-17 02:31 METAR KSLK 170731Z AUTO 00000KT 10SM BKN013 BKN110 M17/M18 A3025 RMK AO2
                 T11671178 $ =
2018-01-17 01:51 METAR KSLK 170651Z AUTO 00000KT 10SM CLR M14/M16 A3024 RMK AO2 SLP274 I1000
                 T11441156 $ =
2018-01-17 01:23 METAR KSLK 170623Z AUTO 00000KT 5SM BR CLR M13/M13 A3024 RMK AO2 I1000 T11281133
                 $ =
2018-01-17 01:18 METAR KSLK 170618Z AUTO 00000KT 1 1/4SM BR CLR M13/M13 A3024 RMK AO2 I1000
                 T11281133 $ =
2018-01-17 00:51 METAR KSLK 170551Z AUTO 00000KT 10SM CLR M12/M12 A3024 RMK AO2 SLP273 60000
                 T11171122 11067 21117 58012 $ =
2018-01-16 23:51 METAR KSLK 170451Z AUTO 00000KT 6SM BR BKN055 OVC065 M08/M09 A3027 RMK AO2
                 SNE0355 SLP279 P0000 T10831094 410501150 $ =
2018-01-16 22:51 METAR KSLK 170351Z AUTO 24006KT 4SM -SN BR OVC038 M07/M09 A3028 RMK AO2 SLP284
                 P0000 T10721089 $ =
2018-01-16 22:19 METAR KSLK 170319Z AUTO 24005KT 4SM -SN BR SCT014 OVC040 M07/M08 A3028 RMK AO2
                 P0000 T10671083 $ =
2018-01-16 22:04 METAR KSLK 170304Z AUTO 23005KT 3SM -SN BR SCT010 BKN015 OVC025 M07/M08 A3028
                 RMK AO2 P0000 T10671078 $ =
2018-01-16 21:51 METAR KSLK 170251Z AUTO 24003KT 2SM -SN BR BKN010 BKN014 OVC022 M07/M07 A3028
                 RMK AO2 SLP285 P0000 60000 T10671072 58001 $ =
2018-01-16 21:42 METAR KSLK 170242Z AUTO 29003KT 1 1/2SM -SN BR FEW008 FEW013 OVC023 M07/M08
                 A3028 RMK AO2 P0000 T10671078 $ =
2018-01-16 21:22 METAR KSLK 170222Z AUTO 00000KT 2SM -SN BR OVC023 M07/M08 A3028 RMK AO2 P0000
                 T10721078 $ =
2018-01-16 21:10 METAR KSLK 170210Z AUTO 00000KT 1 3/4SM -SN BR BKN021 OVC029 M07/M08 A3027 RMK
                 AO2 P0000 T10721078 $ =
2018-01-16 20:51 METAR KSLK 170151Z AUTO 00000KT 3SM -SN BR BKN023 OVC028 M07/M08 A3028 RMK AO2
                 SLP286 P0000 T10721078 $ =
2018-01-16 20:38 METAR KSLK 170138Z AUTO 00000KT 2 1/2SM -SN BR OVC025 M07/M08 A3027 RMK AO2
                 P0000 T10721078 $ =
2018-01-16 20:20 METAR KSLK 170120Z AUTO 00000KT 2SM -SN BR OVC032 M07/M08 A3028 RMK AO2 P0000
                 T10721078 $ =
2018-01-16 20:01 METAR KSLK 170101Z AUTO 00000KT 3SM -SN BR SCT025 OVC044 M07/M08 A3028 RMK AO2
                 P0000 T10721078 $ =
2018-01-16 19:51 METAR KSLK 170051Z AUTO 00000KT 3SM -SN BR BKN026 BKN031 OVC046 M07/M08 A3028
                 RMK AO2 SNB37 SLP289 P0000 T10721078 $ =
2018-01-16 19:49 METAR KSLK 170049Z AUTO 00000KT 3SM -SN BR BKN026 BKN031 OVC046 M07/M08 A3028
                 RMK AO2 SNB37 P0000 $ =
2018-01-16 19:24 METAR KSLK 170024Z AUTO 00000KT 10SM SCT027 BKN041 OVC060 M07/M08 A3028 RMK AO2
                 T10721083 $ =
2018-01-16 19:06 METAR KSLK 170006Z AUTO 00000KT 10SM FEW019 OVC029 M07/M08 A3028 RMK AO2
                 T10721078 $ =
2018-01-16 18:51 METAR KSLK 162351Z AUTO 00000KT 8SM SCT019 BKN030 OVC043 M07/M08 A3028 RMK AO2
                 SLP287 60000 T10721078 11050 21072 53002 $ =
2018-01-16 17:51 METAR KSLK 162251Z AUTO 00000KT 10SM FEW020 BKN031 OVC120 M06/M07 A3027 RMK AO2
                 SLP284 T10611067 =
2018-01-16 17:42 METAR KSLK 162242Z AUTO 00000KT 10SM SCT018 BKN033 OVC120 M06/M07 A3028 RMK AO2
                 T10611067 =

Support USWX by starting your Amazon purchase here.